Time;durP1;ratioP1;P1;durP2;ratioP2;P2;SDS_P1;SDS_P2;PMS_P1;PMS_P2;Temp;Humidity;BMP_temperature;BMP_pressure;BME280_temperature;BME280_humidity;BME280_pressure;Samples;Min_cycle;Max_cycle;Signal;HPM_P1;HPM_P2
2024/04/13 00:02:15;;;;;;;1.63;0.90;;;;;;;14.89;82.13;101766.63;5408401;26;20332;-70
2024/04/13 00:04:41;;;;;;;3.35;0.75;;;;;;;14.81;82.70;101766.50;5412227;26;20003;-69
2024/04/13 00:07:06;;;;;;;2.33;0.80;;;;;;;14.71;83.36;101774.38;5415533;26;20418;-69
2024/04/13 00:09:31;;;;;;;2.25;1.00;;;;;;;14.62;83.77;101766.56;5408924;26;20020;-69
2024/04/13 00:11:57;;;;;;;1.70;0.82;;;;;;;14.49;84.29;101761.59;5409724;26;20018;-70
2024/04/13 00:14:22;;;;;;;2.88;0.98;;;;;;;14.37;84.98;101758.22;5410828;26;20015;-69
2024/04/13 00:16:48;;;;;;;2.15;0.80;;;;;;;14.30;85.18;101759.75;5408974;26;20500;-69
2024/04/13 00:19:15;;;;;;;3.20;1.05;;;;;;;14.25;85.66;101760.16;5407360;26;20026;-69
2024/04/13 00:21:42;;;;;;;3.53;0.88;;;;;;;14.21;85.90;101752.69;5415441;26;20100;-70
2024/04/13 00:24:09;;;;;;;1.80;0.65;;;;;;;14.19;86.44;101754.63;5406209;26;20047;-70
2024/04/13 00:26:35;;;;;;;2.65;1.02;;;;;;;14.12;86.91;101759.59;5413847;26;20008;-69
2024/04/13 00:29:05;;;;;;;3.00;0.90;;;;;;;14.10;86.74;101752.84;5408887;26;20083;-69
2024/04/13 00:31:31;;;;;;;1.02;0.65;;;;;;;14.10;87.05;101752.84;5414417;26;20018;-69
2024/04/13 00:33:56;;;;;;;4.63;1.08;;;;;;;14.05;86.89;101750.63;5421277;26;20003;-69
2024/04/13 00:36:22;;;;;;;2.88;1.02;;;;;;;14.14;86.60;101749.81;5411336;26;20058;-69
2024/04/13 00:38:47;;;;;;;1.45;0.90;;;;;;;14.18;86.08;101751.16;5411963;26;20015;-69
2024/04/13 00:41:12;;;;;;;5.40;1.60;;;;;;;14.09;85.95;101751.19;5407416;26;20011;-70
2024/04/13 00:43:38;;;;;;;1.85;1.00;;;;;;;14.04;86.85;101743.72;5414986;26;20027;-69
2024/04/13 00:46:07;;;;;;;6.40;1.15;;;;;;;14.03;87.37;101739.47;5409676;26;20092;-69
2024/04/13 00:48:36;;;;;;;8.13;1.20;;;;;;;13.99;87.70;101737.25;5408478;26;20112;-69
2024/04/13 00:51:04;;;;;;;1.73;0.80;;;;;;;13.95;87.86;101737.50;5412070;26;20040;-69
2024/04/13 00:53:33;;;;;;;3.00;1.48;;;;;;;13.92;88.09;101735.16;5404933;26;20008;-69
2024/04/13 00:56:01;;;;;;;4.00;1.05;;;;;;;13.84;88.51;101726.31;5409905;26;20445;-69
2024/04/13 00:58:30;;;;;;;6.28;1.05;;;;;;;13.83;88.70;101735.13;5409722;26;20088;-69
2024/04/13 01:00:57;;;;;;;1.58;0.98;;;;;;;13.82;89.05;101730.84;5403031;26;20007;-70
2024/04/13 01:03:26;;;;;;;3.00;1.10;;;;;;;13.95;88.10;101729.66;5411716;26;20011;-69
2024/04/13 01:05:52;;;;;;;4.57;0.80;;;;;;;13.93;88.20;101741.22;5406009;26;20438;-69
2024/04/13 01:08:20;;;;;;;2.60;1.13;;;;;;;13.94;87.81;101737.66;5404945;26;20015;-69
2024/04/13 01:10:46;;;;;;;2.53;0.77;;;;;;;13.93;87.98;101734.19;5407711;26;20022;-69
2024/04/13 01:13:12;;;;;;;6.32;1.10;;;;;;;13.92;88.24;101735.16;5412437;26;20016;-69
2024/04/13 01:15:38;;;;;;;1.40;0.90;;;;;;;13.97;88.05;101740.00;5411449;26;20474;-70
2024/04/13 01:18:10;;;;;;;2.45;0.80;;;;;;;14.02;87.81;101745.66;5407267;26;20015;-69
2024/04/13 01:20:40;;;;;;;5.57;0.80;;;;;;;14.45;85.30;101739.22;5408131;26;20007;-69
2024/04/13 01:23:06;;;;;;;3.90;0.90;;;;;;;14.78;82.90;101738.75;5400665;26;20486;-69
2024/04/13 01:25:33;;;;;;;2.05;0.93;;;;;;;14.96;82.09;101735.41;5408797;26;20019;-69
2024/04/13 01:27:59;;;;;;;3.58;0.85;;;;;;;14.92;81.89;101745.38;5409906;26;20003;-69
2024/04/13 01:30:24;;;;;;;4.72;0.70;;;;;;;15.02;82.04;101734.84;5410897;26;20008;-70
2024/04/13 01:32:50;;;;;;;5.68;0.90;;;;;;;15.27;80.17;101731.56;5408869;26;20051;-69
2024/04/13 01:35:18;;;;;;;3.72;0.90;;;;;;;15.47;79.33;101727.91;5414562;26;20016;-69
2024/04/13 01:37:43;;;;;;;1.27;0.50;;;;;;;15.68;78.20;101719.78;5410018;26;20008;-68
2024/04/13 01:40:10;;;;;;;3.13;0.80;;;;;;;15.82;77.50;101716.66;5396565;26;20027;-70
2024/04/13 01:42:37;;;;;;;6.57;1.17;;;;;;;15.73;78.57;101719.34;5406806;26;20015;-69
2024/04/13 01:45:03;;;;;;;2.40;0.68;;;;;;;15.48;79.54;101726.91;5411383;26;20026;-69
2024/04/13 01:47:29;;;;;;;4.65;1.05;;;;;;;15.20;80.90;101722.59;5412596;26;20088;-69
2024/04/13 01:49:54;;;;;;;6.82;0.95;;;;;;;14.96;82.39;101724.91;5409720;26;20024;-69
2024/04/13 01:52:20;;;;;;;3.50;1.00;;;;;;;14.76;83.37;101724.13;5415387;26;20008;-69
2024/04/13 01:54:49;;;;;;;2.58;0.68;;;;;;;14.64;83.56;101715.59;5413363;26;20471;-69
2024/04/13 01:57:15;;;;;;;2.28;0.73;;;;;;;14.96;81.73;101711.78;5406499;26;20447;-69
2024/04/13 01:59:41;;;;;;;2.47;0.60;;;;;;;15.42;79.47;101710.91;5410416;26;20014;-69
2024/04/13 02:02:10;;;;;;;5.57;0.63;;;;;;;15.77;76.98;101707.56;5412397;26;20029;-69
2024/04/13 02:04:35;;;;;;;2.55;0.70;;;;;;;15.83;76.49;101710.44;5408187;26;20061;-69
2024/04/13 02:07:01;;;;;;;4.30;0.55;;;;;;;15.72;77.19;101718.50;5410122;26;20020;-69
2024/04/13 02:09:27;;;;;;;2.78;0.75;;;;;;;15.44;78.57;101715.06;5409687;26;20370;-69
2024/04/13 02:11:52;;;;;;;3.42;0.90;;;;;;;15.17;80.01;101715.03;5406297;26;20044;-69
2024/04/13 02:14:18;;;;;;;1.70;0.70;;;;;;;14.94;81.29;101722.44;5404341;26;20019;-69
2024/04/13 02:16:43;;;;;;;4.07;0.95;;;;;;;14.74;81.88;101726.88;5413657;26;20003;-69
2024/04/13 02:19:08;;;;;;;3.40;0.93;;;;;;;14.57;83.20;101717.13;5418484;26;20004;-70
2024/04/13 02:21:35;;;;;;;2.45;0.77;;;;;;;14.42;83.25;101715.91;5409403;26;20022;-69
2024/04/13 02:24:01;;;;;;;3.97;1.00;;;;;;;14.35;84.37;101715.59;5408498;26;20031;-69
2024/04/13 02:26:28;;;;;;;3.30;0.70;;;;;;;14.40;83.63;101705.50;5410665;26;20008;-69
2024/04/13 02:28:53;;;;;;;1.50;1.00;;;;;;;14.41;84.13;101708.97;5418905;26;20039;-69
2024/04/13 02:31:19;;;;;;;2.85;0.80;;;;;;;14.59;82.63;101715.19;5407615;26;20359;-69
2024/04/13 02:33:44;;;;;;;1.45;0.90;;;;;;;14.74;81.45;101716.41;5416893;26;20004;-69
2024/04/13 02:36:09;;;;;;;2.92;0.90;;;;;;;15.09;79.75;101712.31;5410592;26;20095;-70
2024/04/13 02:38:35;;;;;;;3.55;1.05;;;;;;;15.01;80.19;101714.81;5415702;26;20020;-69
2024/04/13 02:41:03;;;;;;;2.72;0.88;;;;;;;14.84;80.61;101711.97;5412107;26;20644;-69
2024/04/13 02:43:31;;;;;;;4.30;0.90;;;;;;;15.09;79.38;101702.63;5400692;26;20096;-69
2024/04/13 02:46:02;;;;;;;2.20;0.70;;;;;;;15.22;78.77;101705.75;5409616;26;20011;-70
2024/04/13 02:48:27;;;;;;;3.50;0.85;;;;;;;15.27;78.24;101708.75;5408072;26;20127;-69
2024/04/13 02:50:53;;;;;;;3.53;0.60;;;;;;;15.26;78.30;101706.28;5409229;26;20015;-69
2024/04/13 02:53:19;;;;;;;1.77;0.60;;;;;;;15.40;77.51;101712.88;5411188;26;20030;-69
2024/04/13 02:55:44;;;;;;;2.53;0.70;;;;;;;15.52;76.92;101712.53;5411599;26;20557;-69
2024/04/13 02:58:10;;;;;;;1.67;0.63;;;;;;;15.52;76.57;101715.16;5406844;26;20327;-69
2024/04/13 03:00:35;;;;;;;3.88;0.88;;;;;;;15.52;76.71;101716.97;5408265;26;20009;-69
2024/04/13 03:03:01;;;;;;;2.55;0.93;;;;;;;15.51;76.88;101720.56;5411378;26;20067;-69
2024/04/13 03:05:26;;;;;;;2.88;0.70;;;;;;;15.48;76.88;101711.16;5408236;26;20354;-69
2024/04/13 03:07:51;;;;;;;3.20;0.80;;;;;;;15.44;77.39;101708.97;5409663;26;20022;-69
2024/04/13 03:10:18;;;;;;;1.48;0.73;;;;;;;15.53;76.44;101721.22;5415475;26;20053;-68
2024/04/13 03:12:43;;;;;;;3.45;0.85;;;;;;;15.61;75.74;101713.44;5410039;26;20480;-68
2024/04/13 03:15:09;;;;;;;1.42;0.70;;;;;;;15.58;75.74;101722.47;5411002;26;20023;-69
2024/04/13 03:17:34;;;;;;;2.83;0.47;;;;;;;15.56;76.35;101716.56;5407243;26;20019;-68
2024/04/13 03:20:00;;;;;;;2.80;0.70;;;;;;;15.51;76.35;101713.50;5412975;26;20007;-69
2024/04/13 03:22:25;;;;;;;4.05;0.60;;;;;;;15.40;77.08;101713.69;5419447;26;20015;-69
2024/04/13 03:24:51;;;;;;;1.85;1.00;;;;;;;15.35;76.94;101715.91;5415283;26;20008;-68
2024/04/13 03:27:17;;;;;;;1.67;0.57;;;;;;;15.39;76.72;101714.66;5415138;26;20007;-68
2024/04/13 03:29:42;;;;;;;5.78;0.65;;;;;;;15.48;76.03;101718.22;5416953;26;20088;-69
2024/04/13 03:32:08;;;;;;;1.73;0.63;;;;;;;15.50;76.02;101717.09;5407657;26;20447;-69
2024/04/13 03:34:33;;;;;;;2.38;0.57;;;;;;;15.43;76.72;101723.91;5404392;26;20466;-69
2024/04/13 03:36:59;;;;;;;2.42;0.88;;;;;;;15.40;76.43;101729.44;5412880;26;20015;-69
2024/04/13 03:39:27;;;;;;;2.00;0.70;;;;;;;15.38;76.77;101720.06;5409471;26;20088;-68
2024/04/13 03:41:53;;;;;;;4.43;0.73;;;;;;;15.37;76.58;101728.91;5409034;26;20008;-69
2024/04/13 03:44:18;;;;;;;2.35;0.60;;;;;;;15.33;76.73;101731.00;5411613;26;20027;-68
2024/04/13 03:46:44;;;;;;;1.77;0.68;;;;;;;15.26;77.47;101737.78;5406596;26;20462;-69
2024/04/13 03:49:09;;;;;;;2.38;0.80;;;;;;;15.18;77.46;101740.31;5410265;26;20064;-69
2024/04/13 03:51:35;;;;;;;5.72;0.85;;;;;;;15.13;78.12;101745.16;5411081;26;20008;-69
2024/04/13 03:54:01;;;;;;;1.55;0.60;;;;;;;15.04;78.31;101746.03;5403865;26;20015;-69
2024/04/13 03:56:27;;;;;;;2.38;0.70;;;;;;;14.81;79.57;101743.72;5410208;26;20119;-69
2024/04/13 03:58:52;;;;;;;3.28;1.05;;;;;;;14.57;80.81;101738.13;5412013;26;20035;-69
2024/04/13 04:01:18;;;;;;;3.53;1.10;;;;;;;14.40;81.98;101733.53;5411439;26;20105;-69
2024/04/13 04:03:43;;;;;;;6.18;0.70;;;;;;;14.24;82.49;101734.91;5412209;26;20003;-68
2024/04/13 04:06:09;;;;;;;2.65;0.50;;;;;;;14.13;83.25;101737.69;5409945;26;20055;-69
2024/04/13 04:08:34;;;;;;;1.77;0.60;;;;;;;14.53;80.95;101734.13;5410789;26;20473;-69
2024/04/13 04:11:00;;;;;;;5.43;0.73;;;;;;;14.90;78.90;101742.06;5407614;26;20440;-68
2024/04/13 04:13:25;;;;;;;7.05;1.02;;;;;;;15.20;77.71;101740.97;5406839;26;20007;-69
2024/04/13 04:15:53;;;;;;;6.93;1.00;;;;;;;15.16;77.86;101739.63;5409691;26;20007;-68
2024/04/13 04:18:20;;;;;;;2.13;0.93;;;;;;;15.26;77.11;101741.25;5408036;26;20007;-68
2024/04/13 04:20:46;;;;;;;3.08;0.55;;;;;;;15.40;76.29;101742.56;5411753;26;20019;-69
2024/04/13 04:23:12;;;;;;;4.72;0.65;;;;;;;15.56;75.27;101737.56;5408287;26;20008;-69
2024/04/13 04:25:39;;;;;;;2.47;0.60;;;;;;;15.60;75.39;101733.66;5411635;26;20061;-70
2024/04/13 04:28:05;;;;;;;2.90;0.75;;;;;;;15.72;74.64;101738.69;5409196;26;20475;-69
2024/04/13 04:30:31;;;;;;;1.67;0.50;;;;;;;15.64;75.09;101735.97;5408150;26;20416;-69
2024/04/13 04:32:57;;;;;;;3.72;0.63;;;;;;;15.48;75.84;101737.44;5410306;26;20099;-69
2024/04/13 04:35:22;;;;;;;1.23;0.60;;;;;;;15.32;77.01;101734.59;5409798;26;20007;-69
2024/04/13 04:37:48;;;;;;;1.10;0.50;;;;;;;15.14;77.70;101742.38;5405294;26;20026;-69
2024/04/13 04:40:13;;;;;;;1.30;0.43;;;;;;;15.28;76.61;101748.97;5418158;26;20015;-69
2024/04/13 04:42:38;;;;;;;1.17;0.50;;;;;;;15.36;76.37;101748.25;5410652;26;20021;-69
2024/04/13 04:45:08;;;;;;;1.83;0.73;;;;;;;15.30;76.61;101748.84;5414773;26;20007;-69
2024/04/13 04:47:34;;;;;;;7.05;1.05;;;;;;;15.34;76.89;101756.28;5413163;26;20091;-69
2024/04/13 04:49:59;;;;;;;2.72;0.93;;;;;;;15.27;76.98;101761.28;5409361;26;20339;-70
2024/04/13 04:52:25;;;;;;;2.58;0.70;;;;;;;15.19;77.49;101757.72;5411820;26;20008;-70
2024/04/13 04:54:51;;;;;;;1.58;0.65;;;;;;;15.13;77.68;101763.53;5406659;26;20367;-70
2024/04/13 04:57:16;;;;;;;3.40;0.60;;;;;;;15.19;77.37;101763.78;5405781;26;20015;-69
2024/04/13 04:59:42;;;;;;;4.05;1.10;;;;;;;15.33;76.95;101754.63;5416931;26;20092;-70
2024/04/13 05:02:08;;;;;;;2.92;0.93;;;;;;;15.41;76.43;101757.38;5401572;26;20018;-70
2024/04/13 05:04:33;;;;;;;3.65;0.40;;;;;;;15.47;76.38;101762.03;5411063;26;20007;-70
2024/04/13 05:06:59;;;;;;;5.57;0.98;;;;;;;15.51;76.09;101773.91;5409368;26;20482;-69
2024/04/13 05:09:24;;;;;;;5.72;0.70;;;;;;;15.57;75.58;101773.38;5390718;26;20518;-70
2024/04/13 05:11:49;;;;;;;2.80;0.60;;;;;;;15.66;75.63;101770.81;5403972;26;20035;-70
2024/04/13 05:14:18;;;;;;;7.25;1.20;;;;;;;15.69;75.58;101765.28;5408252;26;20394;-70
2024/04/13 05:16:44;;;;;;;3.58;0.45;;;;;;;15.78;75.13;101769.66;5416710;26;20029;-70
2024/04/13 05:19:11;;;;;;;5.28;0.93;;;;;;;15.87;75.29;101768.78;5405159;26;20457;-70
2024/04/13 05:21:36;;;;;;;3.22;0.60;;;;;;;15.88;74.79;101767.81;5408049;26;20133;-70
2024/04/13 05:24:03;;;;;;;3.58;0.98;;;;;;;15.92;74.66;101774.41;5416453;26;20356;-70
2024/04/13 05:26:28;;;;;;;3.42;0.82;;;;;;;15.96;74.84;101778.41;5404188;26;20062;-70
2024/04/13 05:28:54;;;;;;;2.42;0.60;;;;;;;15.99;74.38;101783.38;5406575;26;20013;-71
2024/04/13 05:31:19;;;;;;;3.00;0.65;;;;;;;16.00;74.94;101776.31;5406951;26;20031;-71
2024/04/13 05:33:45;;;;;;;4.20;0.95;;;;;;;16.07;74.73;101777.38;5404445;26;20022;-69
2024/04/13 05:36:11;;;;;;;4.03;0.93;;;;;;;16.18;74.11;101770.06;5406155;26;20008;-69
2024/04/13 05:38:37;;;;;;;2.45;0.98;;;;;;;16.27;74.04;101771.81;5411848;26;20018;-69
2024/04/13 05:41:03;;;;;;;3.95;1.00;;;;;;;16.34;73.74;101771.22;5398073;26;20044;-69
2024/04/13 05:43:29;;;;;;;3.00;0.80;;;;;;;16.41;73.35;101780.16;5406933;26;20113;-69
2024/04/13 05:45:55;;;;;;;7.90;0.95;;;;;;;16.52;72.96;101782.56;5404809;26;20374;-69
2024/04/13 05:48:20;;;;;;;1.50;0.52;;;;;;;16.62;72.06;101783.28;5403558;26;20008;-69
2024/04/13 05:50:56;;;;;;;5.70;1.00;;;;;;;16.68;72.94;101787.97;5398816;26;20483;-69
2024/04/13 05:53:21;;;;;;;;;;;;;;;16.59;74.98;101791.47;5405980;26;20023;-69
2024/04/13 05:55:47;;;;;;;11.70;1.02;;;;;;;16.58;74.58;101790.66;5404982;26;20269;-69
2024/04/13 05:58:12;;;;;;;3.83;0.88;;;;;;;16.64;74.46;101797.16;5404557;26;20347;-70
2024/04/13 06:00:38;;;;;;;1.58;0.60;;;;;;;16.76;73.10;101793.31;5409103;26;20447;-69
2024/04/13 06:03:03;;;;;;;2.50;0.50;;;;;;;16.84;72.54;101788.13;5402185;26;20340;-69
2024/04/13 06:05:29;;;;;;;3.10;0.50;;;;;;;16.96;72.61;101793.97;5408423;26;20007;-69
2024/04/13 06:07:54;;;;;;;0.88;0.40;;;;;;;17.13;71.76;101794.88;5406156;26;20062;-68
2024/04/13 06:10:20;;;;;;;1.00;0.55;;;;;;;17.18;71.55;101795.25;5403667;26;20012;-69
2024/04/13 06:12:46;;;;;;;5.28;0.60;;;;;;;17.24;71.72;101803.34;5401448;26;20011;-70
2024/04/13 06:15:12;;;;;;;7.20;1.13;;;;;;;17.42;70.14;101802.47;5414417;26;20015;-69
2024/04/13 06:17:37;;;;;;;4.40;0.77;;;;;;;17.56;69.94;101797.41;5400378;26;20468;-69
2024/04/13 06:20:03;;;;;;;4.00;0.60;;;;;;;17.62;69.59;101808.31;5400062;26;20016;-69
2024/04/13 06:22:29;;;;;;;4.55;0.68;;;;;;;17.64;69.78;101807.16;5404706;26;20045;-69
2024/04/13 06:24:54;;;;;;;3.08;0.68;;;;;;;17.66;70.21;101804.41;5412228;26;20024;-70
2024/04/13 06:27:20;;;;;;;4.72;0.70;;;;;;;17.73;70.65;101802.78;5412849;26;20455;-69
2024/04/13 06:29:49;;;;;;;5.00;0.70;;;;;;;17.86;70.08;101797.91;5410087;26;20022;-69
2024/04/13 06:32:15;;;;;;;0.95;0.47;;;;;;;17.93;70.30;101801.56;5411100;26;20462;-69
2024/04/13 06:34:40;;;;;;;2.13;0.75;;;;;;;17.96;69.39;101795.94;5413557;26;20004;-69
2024/04/13 06:37:06;;;;;;;2.55;0.68;;;;;;;17.96;70.10;101797.78;5408592;26;20088;-69
2024/04/13 06:39:31;;;;;;;1.98;0.50;;;;;;;17.99;70.29;101803.53;5403945;26;20026;-69
2024/04/13 06:41:57;;;;;;;5.68;0.70;;;;;;;17.97;69.71;101804.66;5403095;26;20023;-70
2024/04/13 06:44:22;;;;;;;4.13;0.52;;;;;;;17.96;69.97;101808.31;5406438;26;20011;-70
2024/04/13 06:46:48;;;;;;;2.22;0.80;;;;;;;17.96;69.51;101803.84;5413088;26;20076;-71
2024/04/13 06:49:14;;;;;;;3.15;0.60;;;;;;;17.98;69.89;101795.78;5411257;26;20124;-70
2024/04/13 06:51:40;;;;;;;5.22;0.65;;;;;;;18.02;69.87;101812.94;5403716;26;20003;-73
2024/04/13 06:54:05;;;;;;;1.50;0.45;;;;;;;18.07;70.12;101805.38;5413748;26;20051;-69
2024/04/13 06:56:31;;;;;;;3.00;0.55;;;;;;;18.15;69.85;101805.38;5407039;26;20023;-69
2024/04/13 06:58:56;;;;;;;1.15;0.60;;;;;;;18.22;68.97;101801.94;5405244;26;20004;-69
2024/04/13 07:01:22;;;;;;;2.58;0.85;;;;;;;18.32;69.70;101799.16;5413280;26;20458;-70
2024/04/13 07:03:48;;;;;;;1.67;0.70;;;;;;;18.45;68.60;101799.50;5413707;26;20080;-70
2024/04/13 07:06:14;;;;;;;2.97;0.50;;;;;;;18.53;68.57;101799.50;5412800;26;20019;-69
2024/04/13 07:08:40;;;;;;;2.15;0.75;;;;;;;18.63;68.46;101804.66;5399836;26;20004;-69
2024/04/13 07:11:06;;;;;;;2.72;0.50;;;;;;;18.70;67.52;101807.47;5406238;26;20008;-68
2024/04/13 07:13:33;;;;;;;0.85;0.60;;;;;;;18.79;67.35;101796.75;5406854;26;20082;-69
2024/04/13 07:15:59;;;;;;;4.40;0.80;;;;;;;18.87;67.62;101796.75;5412864;26;20008;-69
2024/04/13 07:18:25;;;;;;;3.10;0.70;;;;;;;18.93;66.69;101797.03;5405244;26;20031;-70
2024/04/13 07:20:50;;;;;;;4.97;0.85;;;;;;;19.00;67.38;101800.66;5406412;26;20008;-70
2024/04/13 07:23:16;;;;;;;4.75;0.60;;;;;;;19.17;66.88;101797.00;5408098;26;20015;-70
2024/04/13 07:25:43;;;;;;;2.10;0.73;;;;;;;19.33;66.32;101806.72;5399913;26;20023;-70
2024/04/13 07:28:10;;;;;;;2.33;0.55;;;;;;;19.49;66.20;101802.19;5405811;26;20007;-70
2024/04/13 07:30:35;;;;;;;2.53;0.82;;;;;;;19.60;65.79;101808.13;5406498;26;20057;-69
2024/04/13 07:33:00;;;;;;;1.95;0.57;;;;;;;19.69;66.21;101812.41;5412125;26;20011;-70
2024/04/13 07:35:26;;;;;;;4.60;0.50;;;;;;;19.75;66.15;101809.06;5404929;26;20019;-69
2024/04/13 07:37:53;;;;;;;3.75;0.77;;;;;;;19.76;65.41;101816.84;5411007;26;20007;-70
2024/04/13 07:40:18;;;;;;;3.90;0.70;;;;;;;19.88;66.37;101806.69;5408485;26;20377;-70
2024/04/13 07:42:43;;;;;;;6.18;0.93;;;;;;;19.92;65.63;101809.81;5404095;26;20019;-70
2024/04/13 07:45:09;;;;;;;3.58;1.00;;;;;;;20.08;64.81;101810.53;5404818;26;20020;-70
2024/04/13 07:47:34;;;;;;;3.92;0.77;;;;;;;20.15;65.50;101810.69;5412770;26;20023;-70
2024/04/13 07:49:59;;;;;;;3.53;0.60;;;;;;;20.26;65.45;101812.09;5386678;26;20023;-69
2024/04/13 07:52:25;;;;;;;4.00;0.60;;;;;;;20.38;64.49;101810.72;5409354;26;20400;-69
2024/04/13 07:54:51;;;;;;;4.00;0.50;;;;;;;20.61;64.60;101806.25;5412073;26;20084;-69
2024/04/13 07:57:17;;;;;;;2.88;0.70;;;;;;;20.79;64.44;101811.22;5410482;26;20015;-68
2024/04/13 07:59:42;;;;;;;1.77;0.60;;;;;;;20.85;63.29;101807.84;5413068;26;20023;-68
2024/04/13 08:02:08;;;;;;;4.35;0.73;;;;;;;20.96;64.03;101809.25;5411537;26;20015;-68
2024/04/13 08:04:33;;;;;;;6.03;0.65;;;;;;;21.15;63.53;101809.56;5409851;26;20450;-68
2024/04/13 08:06:59;;;;;;;2.42;0.63;;;;;;;21.28;63.45;101808.94;5411848;26;20030;-68
2024/04/13 08:09:24;;;;;;;2.25;0.50;;;;;;;21.40;63.51;101802.16;5409487;26;20088;-69
2024/04/13 08:11:50;;;;;;;1.20;0.52;;;;;;;21.52;61.31;101805.19;5412290;26;20012;-68
2024/04/13 08:14:15;;;;;;;4.18;0.90;;;;;;;21.67;61.58;101807.84;5406485;26;20026;-68
2024/04/13 08:16:41;;;;;;;1.48;0.55;;;;;;;21.75;60.92;101802.41;5412294;26;20137;-68
2024/04/13 08:19:06;;;;;;;2.42;0.60;;;;;;;21.81;60.58;101801.66;5412416;26;20022;-68
2024/04/13 08:21:34;;;;;;;1.45;0.50;;;;;;;21.92;60.70;101795.88;5407920;26;20026;-67
2024/04/13 08:24:01;;;;;;;2.75;0.68;;;;;;;21.98;61.08;101794.31;5408426;26;20039;-68
2024/04/13 08:26:26;;;;;;;5.70;0.45;;;;;;;22.08;60.43;101794.88;5411242;26;20055;-68
2024/04/13 08:28:52;;;;;;;3.75;0.73;;;;;;;22.22;60.84;101787.84;5412784;26;20011;-68
2024/04/13 08:31:17;;;;;;;3.67;0.60;;;;;;;22.34;58.73;101789.81;5411794;26;20027;-68
2024/04/13 08:33:43;;;;;;;2.08;0.57;;;;;;;22.30;59.50;101793.84;5409247;26;20495;-69
2024/04/13 08:36:09;;;;;;;0.68;0.30;;;;;;;22.31;59.56;101781.41;5411961;26;20007;-69
2024/04/13 08:38:35;;;;;;;4.80;0.65;;;;;;;22.49;59.29;101785.25;5406920;26;20018;-68
2024/04/13 08:41:28;;;;;;;6.03;0.93;;;;;;;22.48;58.47;101780.13;5410913;26;20360;-68
2024/04/13 08:43:53;;;;;;;3.78;0.40;;;;;;;22.58;58.50;101785.13;5378622;26;20028;-69
2024/04/13 08:46:20;;;;;;;1.85;0.40;;;;;;;22.66;57.89;101783.16;5410001;26;20019;-69
2024/04/13 08:48:46;;;;;;;4.78;0.50;;;;;;;22.63;57.45;101783.53;5411291;26;20077;-69
2024/04/13 08:51:12;;;;;;;3.20;0.30;;;;;;;22.69;57.86;101782.75;5411119;26;20018;-70
2024/04/13 08:53:39;;;;;;;4.38;0.63;;;;;;;22.73;57.98;101778.69;5411448;26;20015;-68
2024/04/13 08:56:05;;;;;;;4.32;0.55;;;;;;;22.72;56.80;101785.03;5405225;26;20047;-69
2024/04/13 08:58:33;;;;;;;3.13;0.50;;;;;;;22.70;57.92;101780.91;5399279;26;20007;-68
2024/04/13 09:01:00;;;;;;;3.55;0.80;;;;;;;22.51;59.08;101777.09;5411553;26;20003;-68
2024/04/13 09:03:27;;;;;;;2.80;0.57;;;;;;;22.49;59.46;101779.13;5411347;26;20004;-69
2024/04/13 09:05:53;;;;;;;1.10;0.50;;;;;;;22.50;58.06;101772.81;5410536;26;20029;-69
2024/04/13 09:08:22;;;;;;;2.85;0.55;;;;;;;22.75;55.82;101768.69;5410392;26;20019;-69
2024/04/13 09:10:51;;;;;;;0.90;0.40;;;;;;;22.74;57.11;101769.72;5410717;26;20383;-69
2024/04/13 09:13:17;;;;;;;0.90;0.40;;;;;;;22.77;56.47;101768.50;5410485;26;20044;-68
2024/04/13 09:15:44;;;;;;;4.30;0.40;;;;;;;22.93;56.34;101768.25;5411188;26;20024;-69
2024/04/13 09:18:10;;;;;;;1.08;0.32;;;;;;;22.84;56.96;101758.78;5411327;26;20008;-69
2024/04/13 09:20:36;;;;;;;2.80;0.50;;;;;;;22.83;57.41;101762.47;5410211;26;20007;-69
2024/04/13 09:23:01;;;;;;;4.35;0.60;;;;;;;22.88;56.74;101753.91;5410646;26;20106;-69
2024/04/13 09:25:27;;;;;;;1.83;0.40;;;;;;;22.95;55.90;101757.44;5406091;26;20011;-69
2024/04/13 09:28:00;;;;;;;1.13;0.40;;;;;;;23.03;54.77;101758.09;5408343;26;20019;-69
2024/04/13 09:30:26;;;;;;;3.03;0.70;;;;;;;22.87;56.50;101746.94;5410390;26;20355;-69
2024/04/13 09:33:06;;;;;;;1.80;0.30;;;;;;;22.87;55.99;101745.13;5410128;26;20026;-69
2024/04/13 09:35:32;;;;;;;2.72;0.38;;;;;;;23.09;54.89;101748.53;5409281;26;20007;-69
2024/04/13 09:37:58;;;;;;;3.35;0.30;;;;;;;23.25;55.57;101742.03;5402750;26;20004;-69
2024/04/13 09:40:23;;;;;;;2.08;0.40;;;;;;;23.32;54.05;101746.38;5410341;26;20008;-69
2024/04/13 09:42:49;;;;;;;1.58;0.50;;;;;;;23.35;54.10;101745.16;5411821;26;20014;-68
2024/04/13 09:45:14;;;;;;;2.03;0.82;;;;;;;23.33;54.04;101742.72;5415744;26;20007;-68
2024/04/13 09:47:40;;;;;;;1.05;0.30;;;;;;;23.53;53.15;101742.84;5408168;26;20012;-70
2024/04/13 09:50:06;;;;;;;1.25;0.30;;;;;;;23.51;53.49;101744.84;5406477;26;20088;-70
2024/04/13 09:52:32;;;;;;;2.38;0.40;;;;;;;23.46;51.44;101737.44;5404478;26;20014;-69
2024/04/13 09:54:59;;;;;;;1.48;0.50;;;;;;;23.59;52.22;101731.41;5405750;26;20015;-70
2024/04/13 09:57:25;;;;;;;6.85;0.45;;;;;;;23.61;51.85;101726.69;5399535;26;20003;-68
2024/04/13 09:59:52;;;;;;;1.35;0.32;;;;;;;23.72;50.77;101731.41;5408242;26;20026;-68
2024/04/13 10:02:18;;;;;;;1.20;0.30;;;;;;;23.68;50.76;101724.03;5410458;26;20007;-68
2024/04/13 10:04:44;;;;;;;1.00;0.35;;;;;;;23.50;52.22;101722.75;5403383;26;20030;-69
2024/04/13 10:07:11;;;;;;;0.82;0.22;;;;;;;23.54;50.92;101725.03;5410408;26;20462;-69
2024/04/13 10:09:40;;;;;;;1.00;0.40;;;;;;;23.77;50.52;101720.19;5415884;26;20558;-68
2024/04/13 10:12:09;;;;;;;2.25;0.40;;;;;;;23.96;50.76;101718.59;5406165;26;20007;-69
2024/04/13 10:14:41;;;;;;;1.00;0.40;;;;;;;23.90;51.04;101711.41;5409960;26;20041;-69
2024/04/13 10:17:07;;;;;;;2.10;0.40;;;;;;;23.78;50.75;101719.97;5410742;26;20439;-69
2024/04/13 10:19:33;;;;;;;1.10;0.45;;;;;;;23.94;49.23;101717.97;5413150;26;20451;-68
2024/04/13 10:22:00;;;;;;;2.60;0.40;;;;;;;23.94;50.48;101704.66;5404527;26;20022;-69
2024/04/13 10:24:28;;;;;;;0.93;0.28;;;;;;;23.68;50.53;101703.56;5403587;26;20015;-68
2024/04/13 10:27:05;;;;;;;3.35;0.30;;;;;;;23.41;50.64;101696.50;5406430;26;20037;-68
2024/04/13 10:29:37;;;;;;;1.17;0.30;;;;;;;23.37;51.56;101701.41;5405276;26;20020;-68
2024/04/13 10:32:28;;;;;;;1.15;0.38;;;;;;;23.38;51.03;101695.06;5409732;26;20012;-68
2024/04/13 10:34:58;;;;;;;0.82;0.30;;;;;;;23.37;52.60;101690.78;5408044;26;20021;-69
2024/04/13 10:37:33;;;;;;;4.22;0.32;;;;;;;23.45;50.97;101695.09;5407604;26;20011;-68
2024/04/13 10:40:02;;;;;;;;;;;;;;;23.42;49.01;101693.66;5409559;26;20004;-68
2024/04/13 10:42:37;;;;;;;1.08;0.30;;;;;;;23.39;51.49;101694.06;5405043;26;19936;-69
2024/04/13 10:45:18;;;;;;;0.95;0.38;;;;;;;23.43;52.62;101689.97;5411760;26;20021;-68
2024/04/13 10:47:44;;;;;;;2.15;0.77;;;;;;;23.45;52.64;101682.63;5405110;26;20007;-68
2024/04/13 10:50:11;;;;;;;3.17;0.40;;;;;;;23.62;51.42;101684.97;5410927;26;20007;-69
2024/04/13 10:52:37;;;;;;;2.03;0.30;;;;;;;23.71;50.88;101681.06;5406446;26;20063;-68
2024/04/13 10:55:02;;;;;;;0.50;0.20;;;;;;;23.64;51.76;101677.56;5408104;26;20088;-68
2024/04/13 10:57:28;;;;;;;1.13;0.32;;;;;;;23.61;51.77;101680.66;5409294;26;20028;-69
2024/04/13 10:59:54;;;;;;;2.92;0.40;;;;;;;23.59;51.94;101672.06;5407995;26;20343;-69
2024/04/13 11:02:19;;;;;;;1.42;0.38;;;;;;;23.49;51.70;101667.09;5402909;26;20022;-70
2024/04/13 11:04:45;;;;;;;1.67;0.40;;;;;;;23.53;51.47;101656.88;5405302;26;20015;-69
2024/04/13 11:07:12;;;;;;;2.00;1.10;;;;;;;23.47;51.96;101653.97;5398488;26;20425;-69
2024/04/13 11:09:39;;;;;;;1.00;0.40;;;;;;;23.60;51.69;101653.22;5402015;26;20026;-70
2024/04/13 11:12:12;;;;;;;1.85;0.20;;;;;;;23.72;50.42;101648.94;5399074;26;20007;-70
2024/04/13 11:14:38;;;;;;;1.35;0.30;;;;;;;23.97;50.43;101651.03;5407023;26;20327;-69
2024/04/13 11:17:03;;;;;;;2.88;0.38;;;;;;;23.94;50.18;101644.25;5402796;26;20016;-69
2024/04/13 11:19:29;;;;;;;1.95;0.40;;;;;;;24.02;47.27;101645.91;5408110;26;20019;-69
2024/04/13 11:21:56;;;;;;;1.08;0.30;;;;;;;24.33;47.72;101632.81;5402944;26;21573;-69
2024/04/13 11:24:22;;;;;;;1.42;0.30;;;;;;;24.47;47.56;101625.63;5398943;26;20105;-69